Time;durP1;ratioP1;P1;durP2;ratioP2;P2;SDS_P1;SDS_P2;PMS_P1;PMS_P2;Temp;Humidity;BMP_temperature;BMP_pressure;BME280_temperature;BME280_humidity;BME280_pressure;Samples;Min_cycle;Max_cycle;Signal;HPM_P1;HPM_P2
2024/01/08 00:03:58;;;;;;;5.68;2.78;;;;;;;;;;10287424;28;20079;-63
2024/01/08 00:08:56;;;;;;;7.63;5.88;;;;;;;;;;10287102;28;20071;-63
2024/01/08 00:13:55;;;;;;;5.88;4.50;;;;;;;;;;10283203;28;20084;-63
2024/01/08 00:18:53;;;;;;;4.78;3.67;;;;;;;;;;10286451;28;20083;-63
2024/01/08 00:23:54;;;;;;;4.88;3.05;;;;;;;;;;10287950;28;20073;-62
2024/01/08 00:28:52;;;;;;;4.75;3.60;;;;;;;;;;10282167;28;20068;-63
2024/01/08 00:33:50;;;;;;;3.78;3.35;;;;;;;;;;10285809;28;20084;-63
2024/01/08 00:38:49;;;;;;;12.25;4.43;;;;;;;;;;10283521;28;20072;-63
2024/01/08 00:43:51;;;;;;;6.05;3.25;;;;;;;;;;10287278;28;20064;-63
2024/01/08 00:48:49;;;;;;;3.53;3.20;;;;;;;;;;10281030;28;20076;-63
2024/01/08 00:53:47;;;;;;;6.15;3.63;;;;;;;;;;10286068;28;20092;-63
2024/01/08 00:58:46;;;;;;;5.07;3.53;;;;;;;;;;10286918;28;20091;-63
2024/01/08 01:03:45;;;;;;;10.80;6.78;;;;;;;;;;10285595;28;20079;-63
2024/01/08 01:08:44;;;;;;;8.60;4.40;;;;;;;;;;10285900;28;20069;-63
2024/01/08 01:13:42;;;;;;;8.20;4.95;;;;;;;;;;10286379;28;20068;-62
2024/01/08 01:18:40;;;;;;;4.40;4.00;;;;;;;;;;10287528;28;20065;-62
2024/01/08 01:23:40;;;;;;;4.20;3.80;;;;;;;;;;10295006;28;20069;-63
2024/01/08 01:28:38;;;;;;;7.53;3.83;;;;;;;;;;10291223;28;20080;-62
2024/01/08 01:33:37;;;;;;;4.30;3.40;;;;;;;;;;10292744;28;20080;-62
2024/01/08 01:38:35;;;;;;;4.85;3.50;;;;;;;;;;10292908;28;20095;-62
2024/01/08 01:43:35;;;;;;;8.18;5.07;;;;;;;;;;10295172;28;20136;-61
2024/01/08 01:48:33;;;;;;;4.18;3.78;;;;;;;;;;10293875;28;20075;-62
2024/01/08 01:53:32;;;;;;;7.28;3.70;;;;;;;;;;10291611;28;20072;-62
2024/01/08 01:58:30;;;;;;;4.78;3.53;;;;;;;;;;10292537;28;20064;-62
2024/01/08 02:03:30;;;;;;;7.35;3.40;;;;;;;;;;10291750;28;20068;-62
2024/01/08 02:08:29;;;;;;;4.53;4.10;;;;;;;;;;10291751;28;20061;-63
2024/01/08 02:13:27;;;;;;;6.47;3.72;;;;;;;;;;10291285;28;20075;-62
2024/01/08 02:18:25;;;;;;;4.30;3.78;;;;;;;;;;10287954;28;20041;-62
2024/01/08 02:23:25;;;;;;;4.75;3.97;;;;;;;;;;10291575;28;20143;-62
2024/01/08 02:28:23;;;;;;;5.10;3.50;;;;;;;;;;10289959;28;20060;-62
2024/01/08 02:33:21;;;;;;;4.32;3.20;;;;;;;;;;10289064;28;20076;-62
2024/01/08 02:38:20;;;;;;;9.80;4.43;;;;;;;;;;10290400;28;20320;-62
2024/01/08 02:43:19;;;;;;;4.20;3.78;;;;;;;;;;10289976;28;20310;-63
2024/01/08 02:48:18;;;;;;;4.47;4.07;;;;;;;;;;10290965;28;20108;-62
2024/01/08 02:53:16;;;;;;;4.45;3.95;;;;;;;;;;10291439;28;20462;-62
2024/01/08 02:58:14;;;;;;;4.15;3.80;;;;;;;;;;10290213;28;20064;-62
2024/01/08 03:03:14;;;;;;;4.53;4.13;;;;;;;;;;10289200;28;20083;-61
2024/01/08 03:08:12;;;;;;;4.90;4.40;;;;;;;;;;10285081;28;20072;-62
2024/01/08 03:13:10;;;;;;;4.47;4.07;;;;;;;;;;10288734;28;20099;-62
2024/01/08 03:18:08;;;;;;;5.38;3.40;;;;;;;;;;10290266;28;20061;-62
2024/01/08 03:23:09;;;;;;;4.63;4.25;;;;;;;;;;10289604;28;20561;-61
2024/01/08 03:28:07;;;;;;;4.10;3.80;;;;;;;;;;10287671;28;20041;-63
2024/01/08 03:33:05;;;;;;;5.88;3.70;;;;;;;;;;10288709;28;20070;-63
2024/01/08 03:38:04;;;;;;;4.95;3.85;;;;;;;;;;10288618;28;20081;-63
2024/01/08 03:43:04;;;;;;;4.53;4.13;;;;;;;;;;10290102;28;20075;-63
2024/01/08 03:48:02;;;;;;;6.15;5.30;;;;;;;;;;10288263;28;20076;-63
2024/01/08 03:53:00;;;;;;;4.60;3.80;;;;;;;;;;10289271;28;20076;-63
2024/01/08 03:57:59;;;;;;;4.53;4.13;;;;;;;;;;10286521;28;20076;-62
2024/01/08 04:02:58;;;;;;;4.47;4.07;;;;;;;;;;10287278;28;20076;-61
2024/01/08 04:07:57;;;;;;;5.18;4.28;;;;;;;;;;10287531;28;20073;-61
2024/01/08 04:12:55;;;;;;;4.25;3.85;;;;;;;;;;10287492;28;20473;-62
2024/01/08 04:17:54;;;;;;;4.43;4.03;;;;;;;;;;10286452;28;20076;-62
2024/01/08 04:22:53;;;;;;;3.85;3.55;;;;;;;;;;10289785;28;20087;-61
2024/01/08 04:27:52;;;;;;;4.65;4.20;;;;;;;;;;10286236;28;20060;-63
2024/01/08 04:32:50;;;;;;;4.00;3.70;;;;;;;;;;10285476;28;20086;-62
2024/01/08 04:37:48;;;;;;;4.68;4.32;;;;;;;;;;10287042;28;20075;-62
2024/01/08 04:42:48;;;;;;;4.72;4.32;;;;;;;;;;10286193;28;20073;-62
2024/01/08 04:47:48;;;;;;;4.32;3.90;;;;;;;;;;10282198;28;20485;-62
2024/01/08 04:52:46;;;;;;;4.65;4.25;;;;;;;;;;10283896;28;20630;-62
2024/01/08 04:57:45;;;;;;;5.07;4.57;;;;;;;;;;10302328;28;20502;-62
2024/01/08 05:02:45;;;;;;;4.65;4.15;;;;;;;;;;10298637;28;20060;-63
2024/01/08 05:07:43;;;;;;;5.30;4.38;;;;;;;;;;10298843;28;20067;-62
2024/01/08 05:12:42;;;;;;;4.68;4.28;;;;;;;;;;10301853;28;20068;-62
2024/01/08 05:17:40;;;;;;;11.00;9.00;;;;;;;;;;10299654;28;20068;-62
2024/01/08 05:22:40;;;;;;;8.10;5.13;;;;;;;;;;10295987;28;20075;-60
2024/01/08 05:27:38;;;;;;;4.97;4.57;;;;;;;;;;10293663;28;20068;-61
2024/01/08 05:32:36;;;;;;;4.68;4.13;;;;;;;;;;10298409;28;20076;-62
2024/01/08 05:37:35;;;;;;;5.25;4.72;;;;;;;;;;10298516;28;20076;-62
2024/01/08 05:42:35;;;;;;;5.43;5.03;;;;;;;;;;10295409;28;20064;-61
2024/01/08 05:47:34;;;;;;;5.72;4.68;;;;;;;;;;10298119;28;20080;-62
2024/01/08 05:52:33;;;;;;;6.65;4.45;;;;;;;;;;10294453;28;20086;-62
2024/01/08 05:57:31;;;;;;;6.07;5.57;;;;;;;;;;10297791;28;20079;-62
2024/01/08 06:02:31;;;;;;;5.70;5.07;;;;;;;;;;10300868;28;20514;-62
2024/01/08 06:07:29;;;;;;;5.47;5.00;;;;;;;;;;10287856;28;20083;-62
2024/01/08 06:12:27;;;;;;;6.65;5.65;;;;;;;;;;10291771;28;20084;-62
2024/01/08 06:17:25;;;;;;;6.57;5.97;;;;;;;;;;10292943;28;20541;-62
2024/01/08 06:22:26;;;;;;;6.60;5.90;;;;;;;;;;10289317;28;20080;-62
2024/01/08 06:27:24;;;;;;;8.65;7.20;;;;;;;;;;10287769;28;20080;-62
2024/01/08 06:32:22;;;;;;;12.10;9.32;;;;;;;;;;10287360;28;20102;-62
2024/01/08 06:37:21;;;;;;;11.90;7.10;;;;;;;;;;10285745;28;20918;-62
2024/01/08 06:42:20;;;;;;;7.55;6.63;;;;;;;;;;10281872;28;20084;-62
2024/01/08 06:47:18;;;;;;;5.90;5.40;;;;;;;;;;10289390;28;20075;-63
2024/01/08 06:52:17;;;;;;;10.35;7.15;;;;;;;;;;10285218;28;20075;-62
2024/01/08 06:57:15;;;;;;;7.68;6.82;;;;;;;;;;10289852;28;20068;-63
2024/01/08 07:02:14;;;;;;;8.00;5.85;;;;;;;;;;10290058;28;20068;-62
2024/01/08 07:07:13;;;;;;;6.47;5.78;;;;;;;;;;10290037;28;20075;-62
2024/01/08 07:12:11;;;;;;;7.03;6.35;;;;;;;;;;10284615;28;20088;-62
2024/01/08 07:17:10;;;;;;;6.40;5.75;;;;;;;;;;10289385;28;20072;-63
2024/01/08 07:22:09;;;;;;;6.47;5.90;;;;;;;;;;10289271;28;20064;-63
2024/01/08 07:27:08;;;;;;;9.38;6.43;;;;;;;;;;10289904;28;20076;-63
2024/01/08 07:32:06;;;;;;;6.97;6.30;;;;;;;;;;10288067;28;20573;-62
2024/01/08 07:37:05;;;;;;;6.38;5.78;;;;;;;;;;10287619;28;20079;-61
2024/01/08 07:42:04;;;;;;;9.50;6.95;;;;;;;;;;10288764;28;20525;-61
2024/01/08 07:47:03;;;;;;;5.85;5.25;;;;;;;;;;10288745;28;20507;-62
2024/01/08 07:52:01;;;;;;;8.02;6.25;;;;;;;;;;10286747;28;20076;-62
2024/01/08 07:56:59;;;;;;;7.20;5.82;;;;;;;;;;10287284;28;20068;-62
2024/01/08 08:02:02;;;;;;;9.18;6.43;;;;;;;;;;10288107;28;20064;-61
2024/01/08 08:07:01;;;;;;;8.63;6.65;;;;;;;;;;10287769;28;20576;-61
2024/01/08 08:11:59;;;;;;;7.55;6.75;;;;;;;;;;10286086;28;20069;-61
2024/01/08 08:16:57;;;;;;;9.65;6.97;;;;;;;;;;10284598;28;20114;-62
2024/01/08 08:21:57;;;;;;;7.80;6.72;;;;;;;;;;10286850;28;20064;-62
2024/01/08 08:26:55;;;;;;;7.28;6.55;;;;;;;;;;10287602;28;20060;-61
2024/01/08 08:31:54;;;;;;;8.88;6.88;;;;;;;;;;10286606;28;20071;-61
2024/01/08 08:36:52;;;;;;;6.35;5.75;;;;;;;;;;10283693;28;20076;-61
2024/01/08 08:41:52;;;;;;;12.02;6.28;;;;;;;;;;10286240;28;20088;-61
2024/01/08 08:46:50;;;;;;;6.07;5.45;;;;;;;;;;10281340;28;20078;-63
2024/01/08 08:51:48;;;;;;;7.68;6.22;;;;;;;;;;10286842;28;20587;-61
2024/01/08 08:56:46;;;;;;;7.93;6.50;;;;;;;;;;10285994;28;20099;-61
2024/01/08 09:01:48;;;;;;;6.82;6.13;;;;;;;;;;10285255;28;20068;-62
2024/01/08 09:06:47;;;;;;;7.72;6.57;;;;;;;;;;10285470;28;20081;-62
2024/01/08 09:11:46;;;;;;;8.68;6.43;;;;;;;;;;10284619;28;20083;-61
2024/01/08 09:16:45;;;;;;;9.35;6.72;;;;;;;;;;10288820;28;20080;-63
2024/01/08 09:21:45;;;;;;;11.13;6.38;;;;;;;;;;10283154;28;20076;-63
2024/01/08 09:26:43;;;;;;;7.47;6.55;;;;;;;;;;10282634;28;20072;-62
2024/01/08 09:31:41;;;;;;;11.95;7.63;;;;;;;;;;10283779;28;20498;-62
2024/01/08 09:36:41;;;;;;;13.75;9.35;;;;;;;;;;10282753;28;20081;-63
2024/01/08 09:41:39;;;;;;;8.88;7.15;;;;;;;;;;10287910;28;20065;-63
2024/01/08 09:46:43;;;;;;;7.82;6.65;;;;;;;;;;10286561;28;20061;-61
2024/01/08 09:51:43;;;;;;;12.75;7.60;;;;;;;;;;10291580;28;20114;-62
2024/01/08 09:56:41;;;;;;;6.38;5.75;;;;;;;;;;10286206;28;20072;-62
2024/01/08 10:01:42;;;;;;;7.45;6.30;;;;;;;;;;10292025;28;20072;-63
2024/01/08 10:06:41;;;;;;;10.45;8.00;;;;;;;;;;10294168;28;20080;-61
2024/01/08 10:11:40;;;;;;;12.25;8.35;;;;;;;;;;10292035;28;20482;-62
2024/01/08 10:16:39;;;;;;;9.98;7.60;;;;;;;;;;10291187;28;20091;-61
2024/01/08 10:22:06;;;;;;;11.57;9.13;;;;;;;;;;10292431;28;20064;-62
2024/01/08 10:27:07;;;;;;;7.75;6.95;;;;;;;;;;10289625;28;20084;-61
2024/01/08 10:32:06;;;;;;;7.80;7.00;;;;;;;;;;10291105;28;20072;-61
2024/01/08 10:37:04;;;;;;;8.50;6.82;;;;;;;;;;10290605;28;20083;-61
2024/01/08 10:42:02;;;;;;;19.50;8.40;;;;;;;;;;10291324;28;20080;-61
2024/01/08 10:47:06;;;;;;;8.57;7.15;;;;;;;;;;10289876;28;20060;-61
2024/01/08 10:52:09;;;;;;;13.32;8.70;;;;;;;;;;10285055;28;20069;-61
2024/01/08 10:57:11;;;;;;;11.88;7.72;;;;;;;;;;10292056;28;20084;-61
2024/01/08 11:02:14;;;;;;;9.07;7.43;;;;;;;;;;10293872;28;20079;-62
2024/01/08 11:07:13;;;;;;;8.00;7.30;;;;;;;;;;10290760;28;20069;-62
2024/01/08 11:12:11;;;;;;;30.77;17.10;;;;;;;;;;10290674;28;20076;-62
2024/01/08 11:17:11;;;;;;;8.80;7.90;;;;;;;;;;10286416;28;20503;-62
2024/01/08 11:22:11;;;;;;;9.23;7.72;;;;;;;;;;10289369;28;20075;-63
2024/01/08 11:27:09;;;;;;;11.70;10.27;;;;;;;;;;10288679;28;20068;-61
2024/01/08 11:32:22;;;;;;;11.02;8.77;;;;;;;;;;10287634;28;20076;-61
2024/01/08 11:37:32;;;;;;;10.32;8.90;;;;;;;;;;10287713;28;20076;-61
2024/01/08 11:42:33;;;;;;;15.25;10.48;;;;;;;;;;10288742;28;20083;-62
2024/01/08 11:47:31;;;;;;;9.60;7.35;;;;;;;;;;10287364;28;20072;-61
2024/01/08 11:52:30;;;;;;;8.23;7.20;;;;;;;;;;10287800;28;20064;-61
2024/01/08 11:57:29;;;;;;;11.32;7.53;;;;;;;;;;10287005;28;20072;-63
2024/01/08 12:02:28;;;;;;;8.68;7.60;;;;;;;;;;10284732;28;20076;-61
2024/01/08 12:07:27;;;;;;;10.10;7.22;;;;;;;;;;10293907;28;20041;-62
2024/01/08 12:12:25;;;;;;;12.65;9.00;;;;;;;;;;10287387;28;20142;-64
2024/01/08 12:17:25;;;;;;;16.25;10.93;;;;;;;;;;10287229;28;20071;-63
2024/01/08 12:22:24;;;;;;;11.40;9.05;;;;;;;;;;10285515;28;20072;-63
2024/01/08 12:27:23;;;;;;;13.30;8.02;;;;;;;;;;10287933;28;20067;-62
2024/01/08 12:32:21;;;;;;;10.68;7.43;;;;;;;;;;10286639;28;20084;-63
2024/01/08 12:37:22;;;;;;;12.43;9.75;;;;;;;;;;10285934;28;20075;-64
2024/01/08 12:42:21;;;;;;;12.30;8.65;;;;;;;;;;10281872;28;20045;-63
2024/01/08 12:47:19;;;;;;;11.20;8.68;;;;;;;;;;10286496;28;20515;-62
2024/01/08 12:52:17;;;;;;;13.85;8.13;;;;;;;;;;10286955;28;20675;-61
2024/01/08 12:57:17;;;;;;;18.05;8.95;;;;;;;;;;10286917;28;20076;-62
2024/01/08 13:02:15;;;;;;;9.32;8.32;;;;;;;;;;10286437;28;20076;-63
2024/01/08 13:07:13;;;;;;;10.52;8.15;;;;;;;;;;10286657;28;20076;-61
2024/01/08 13:12:11;;;;;;;10.68;8.00;;;;;;;;;;10286715;28;20072;-64
2024/01/08 13:17:12;;;;;;;11.60;8.45;;;;;;;;;;10292000;28;20359;-64
2024/01/08 13:22:11;;;;;;;10.23;8.52;;;;;;;;;;10293383;28;20071;-62
2024/01/08 13:27:13;;;;;;;11.00;8.32;;;;;;;;;;10293847;28;20087;-62
2024/01/08 13:32:15;;;;;;;9.93;8.38;;;;;;;;;;10294815;28;20076;-62
2024/01/08 13:37:14;;;;;;;11.98;7.82;;;;;;;;;;10293090;28;20502;-63
2024/01/08 13:42:17;;;;;;;13.88;10.60;;;;;;;;;;10293344;28;20506;-63
2024/01/08 13:47:16;;;;;;;12.57;10.02;;;;;;;;;;10289003;28;20112;-63
2024/01/08 13:52:15;;;;;;;14.65;9.43;;;;;;;;;;10292262;28;20073;-63
2024/01/08 13:57:13;;;;;;;17.40;10.43;;;;;;;;;;10293554;28;20081;-62
2024/01/08 14:02:12;;;;;;;11.95;8.40;;;;;;;;;;10287521;28;20515;-62
2024/01/08 14:07:12;;;;;;;11.85;9.50;;;;;;;;;;10292804;28;20460;-62
2024/01/08 14:12:11;;;;;;;13.43;9.65;;;;;;;;;;10291203;28;20080;-62
2024/01/08 14:17:09;;;;;;;14.38;12.88;;;;;;;;;;10292013;28;20072;-62
2024/01/08 14:22:07;;;;;;;12.35;9.75;;;;;;;;;;10292640;28;20071;-63
2024/01/08 14:27:07;;;;;;;17.13;12.00;;;;;;;;;;10289911;28;20521;-62
2024/01/08 14:32:05;;;;;;;15.02;13.27;;;;;;;;;;10291068;28;20061;-63
2024/01/08 14:37:04;;;;;;;15.95;11.60;;;;;;;;;;10289757;28;20465;-63
2024/01/08 14:42:02;;;;;;;15.43;11.90;;;;;;;;;;10292135;28;20462;-63
2024/01/08 14:47:02;;;;;;;18.92;12.32;;;;;;;;;;10289920;28;20068;-63
2024/01/08 14:52:00;;;;;;;14.35;9.77;;;;;;;;;;10292108;28;20088;-63
2024/01/08 14:56:58;;;;;;;12.80;8.50;;;;;;;;;;10290104;28;20457;-63
2024/01/08 15:01:57;;;;;;;19.83;10.13;;;;;;;;;;10289490;28;20080;-62
2024/01/08 15:07:00;;;;;;;17.23;12.13;;;;;;;;;;10289109;28;20065;-63
2024/01/08 15:11:59;;;;;;;26.27;14.90;;;;;;;;;;10285064;28;20069;-63
2024/01/08 15:16:57;;;;;;;15.95;11.43;;;;;;;;;;10286016;28;20080;-62
2024/01/08 15:21:55;;;;;;;15.40;9.82;;;;;;;;;;10288817;28;20076;-62
2024/01/08 15:26:57;;;;;;;12.98;10.18;;;;;;;;;;10288933;28;20063;-64
2024/01/08 15:31:55;;;;;;;30.80;18.67;;;;;;;;;;10291087;28;20083;-63
2024/01/08 15:36:54;;;;;;;15.68;10.70;;;;;;;;;;10283328;28;20071;-62
2024/01/08 15:41:52;;;;;;;18.83;13.25;;;;;;;;;;10285079;28;20119;-62
2024/01/08 15:46:52;;;;;;;13.93;11.45;;;;;;;;;;10284876;28;20076;-62
2024/01/08 15:51:50;;;;;;;20.88;12.70;;;;;;;;;;10283070;28;20692;-62
2024/01/08 15:56:48;;;;;;;17.17;13.65;;;;;;;;;;10288913;28;20529;-62
2024/01/08 16:01:47;;;;;;;28.38;18.50;;;;;;;;;;10290421;28;20088;-62
2024/01/08 16:06:46;;;;;;;29.33;18.30;;;;;;;;;;10286988;28;20080;-62
2024/01/08 16:11:47;;;;;;;40.72;26.67;;;;;;;;;;10284465;28;20492;-62
2024/01/08 16:16:46;;;;;;;22.92;17.63;;;;;;;;;;10290917;28;20079;-64
2024/01/08 16:21:44;;;;;;;17.73;14.85;;;;;;;;;;10289061;28;20076;-63
2024/01/08 16:26:44;;;;;;;21.08;14.00;;;;;;;;;;10283937;28;20069;-63
2024/01/08 16:31:43;;;;;;;15.10;11.48;;;;;;;;;;10285209;28;20198;-64
2024/01/08 16:36:41;;;;;;;14.60;12.30;;;;;;;;;;10284060;28;20087;-65
2024/01/08 16:41:39;;;;;;;16.60;12.15;;;;;;;;;;10285173;28;20068;-63
2024/01/08 16:46:39;;;;;;;22.60;14.18;;;;;;;;;;10283412;28;20076;-63
2024/01/08 16:51:40;;;;;;;52.70;31.10;;;;;;;;;;10275936;28;20095;-64
2024/01/08 16:56:38;;;;;;;52.58;31.48;;;;;;;;;;10280460;28;20082;-64
2024/01/08 17:01:36;;;;;;;18.35;13.95;;;;;;;;;;10280099;28;20087;-63
2024/01/08 17:06:36;;;;;;;27.05;18.35;;;;;;;;;;10280958;28;20072;-62
2024/01/08 17:11:34;;;;;;;19.88;13.23;;;;;;;;;;10278091;28;20077;-63
2024/01/08 17:16:32;;;;;;;17.90;14.27;;;;;;;;;;10281077;28;20076;-62
2024/01/08 17:21:31;;;;;;;15.30;11.20;;;;;;;;;;10285267;28;20072;-63
2024/01/08 17:26:31;;;;;;;19.73;14.07;;;;;;;;;;10286176;28;20466;-63
2024/01/08 17:31:30;;;;;;;18.35;12.43;;;;;;;;;;10284241;28;20069;-63
2024/01/08 17:36:29;;;;;;;18.30;14.77;;;;;;;;;;10282492;28;20068;-63
2024/01/08 17:41:28;;;;;;;21.27;15.60;;;;;;;;;;10283991;28;20084;-62
2024/01/08 17:46:28;;;;;;;17.42;11.27;;;;;;;;;;10285100;28;20057;-63
2024/01/08 17:51:30;;;;;;;19.42;13.32;;;;;;;;;;10285180;28;20076;-63
2024/01/08 17:56:29;;;;;;;22.38;16.85;;;;;;;;;;10285468;28;20079;-62
2024/01/08 18:01:28;;;;;;;17.60;13.32;;;;;;;;;;10288288;28;20077;-63
2024/01/08 18:06:27;;;;;;;15.98;12.93;;;;;;;;;;10291642;28;20072;-63
2024/01/08 18:11:26;;;;;;;15.95;11.70;;;;;;;;;;10291217;28;20501;-63
2024/01/08 18:16:25;;;;;;;22.70;12.50;;;;;;;;;;10295400;28;20056;-62
2024/01/08 18:21:25;;;;;;;15.95;12.32;;;;;;;;;;10291859;28;20083;-62
2024/01/08 18:26:23;;;;;;;14.90;11.68;;;;;;;;;;10290433;28;20060;-63
2024/01/08 18:31:21;;;;;;;17.02;11.55;;;;;;;;;;10290606;28;20499;-63
2024/01/08 18:36:19;;;;;;;17.13;12.20;;;;;;;;;;10292481;28;20084;-63
2024/01/08 18:41:19;;;;;;;18.20;14.07;;;;;;;;;;10292278;28;20080;-63
2024/01/08 18:46:18;;;;;;;17.10;12.02;;;;;;;;;;10292368;28;20068;-63
2024/01/08 18:51:16;;;;;;;18.20;13.85;;;;;;;;;;10291015;28;20507;-63
2024/01/08 18:56:14;;;;;;;32.35;22.92;;;;;;;;;;10290711;28;20478;-63
2024/01/08 19:01:14;;;;;;;19.65;13.48;;;;;;;;;;10287868;28;20077;-63
2024/01/08 19:06:14;;;;;;;18.90;14.15;;;;;;;;;;10289231;28;20511;-62
2024/01/08 19:11:13;;;;;;;18.58;12.65;;;;;;;;;;10293407;28;20419;-63
2024/01/08 19:16:11;;;;;;;25.85;18.55;;;;;;;;;;10290177;28;20076;-63
2024/01/08 19:21:11;;;;;;;19.13;13.65;;;;;;;;;;10284580;28;20170;-62
2024/01/08 19:26:09;;;;;;;26.85;18.52;;;;;;;;;;10291008;28;20081;-62
2024/01/08 19:31:08;;;;;;;18.63;14.27;;;;;;;;;;10288753;28;20080;-64
2024/01/08 19:36:07;;;;;;;17.98;12.68;;;;;;;;;;10289707;28;20079;-63
2024/01/08 19:41:07;;;;;;;13.70;10.88;;;;;;;;;;10289739;28;20083;-62
2024/01/08 19:46:05;;;;;;;16.38;12.30;;;;;;;;;;10284512;28;20076;-63
2024/01/08 19:51:04;;;;;;;17.17;12.18;;;;;;;;;;10288515;28;20514;-63
2024/01/08 19:56:02;;;;;;;19.15;14.48;;;;;;;;;;10288383;28;20068;-63
2024/01/08 20:01:02;;;;;;;19.38;13.57;;;;;;;;;;10288656;28;20075;-62
2024/01/08 20:06:01;;;;;;;18.05;13.80;;;;;;;;;;10288224;28;20083;-62
2024/01/08 20:10:59;;;;;;;17.00;13.05;;;;;;;;;;10288756;28;20518;-62
2024/01/08 20:15:58;;;;;;;14.35;10.98;;;;;;;;;;10288202;28;21054;-63
2024/01/08 20:21:02;;;;;;;18.30;11.93;;;;;;;;;;10287527;28;20091;-62
2024/01/08 20:26:05;;;;;;;20.67;12.47;;;;;;;;;;10281973;28;20628;-63
2024/01/08 20:31:04;;;;;;;18.92;13.32;;;;;;;;;;10287049;28;20060;-63
2024/01/08 20:36:04;;;;;;;14.95;10.82;;;;;;;;;;10285858;28;20077;-63
2024/01/08 20:41:02;;;;;;;14.77;12.52;;;;;;;;;;10287113;28;20083;-63
2024/01/08 20:46:01;;;;;;;20.38;12.73;;;;;;;;;;10281967;28;20072;-62
2024/01/08 20:50:59;;;;;;;15.23;10.88;;;;;;;;;;10286321;28;20061;-64
2024/01/08 20:55:59;;;;;;;17.40;12.65;;;;;;;;;;10289858;28;20086;-62
2024/01/08 21:00:57;;;;;;;15.30;12.48;;;;;;;;;;10301396;28;20077;-63
2024/01/08 21:05:55;;;;;;;16.20;11.23;;;;;;;;;;10287968;28;20072;-62
2024/01/08 21:10:56;;;;;;;19.73;12.85;;;;;;;;;;10298604;28;20130;-62
2024/01/08 21:15:56;;;;;;;16.65;12.13;;;;;;;;;;10306201;28;20064;-62
2024/01/08 21:20:54;;;;;;;16.98;12.35;;;;;;;;;;10293907;28;20087;-62
2024/01/08 21:25:53;;;;;;;16.08;11.27;;;;;;;;;;10289513;28;20067;-62
2024/01/08 21:30:51;;;;;;;18.63;11.00;;;;;;;;;;10284105;28;20076;-62
2024/01/08 21:35:50;;;;;;;16.13;11.70;;;;;;;;;;10301076;28;20076;-63
2024/01/08 21:40:49;;;;;;;15.00;10.90;;;;;;;;;;10326472;28;20084;-61
2024/01/08 21:45:47;;;;;;;15.68;11.93;;;;;;;;;;10312089;28;20511;-63
2024/01/08 21:50:45;;;;;;;16.50;11.73;;;;;;;;;;10292442;28;20079;-63
2024/01/08 21:55:45;;;;;;;14.38;9.18;;;;;;;;;;10295176;28;20451;-61
2024/01/08 22:00:43;;;;;;;14.15;9.95;;;;;;;;;;10291301;28;20121;-62
2024/01/08 22:05:41;;;;;;;12.73;9.15;;;;;;;;;;10296442;28;20064;-61
2024/01/08 22:10:40;;;;;;;21.98;13.20;;;;;;;;;;10293273;28;20534;-62
2024/01/08 22:15:39;;;;;;;20.52;14.02;;;;;;;;;;10291004;28;20091;-61
2024/01/08 22:20:38;;;;;;;12.88;10.02;;;;;;;;;;10288692;28;20086;-63
2024/01/08 22:25:36;;;;;;;13.48;9.40;;;;;;;;;;10292970;28;20502;-62
2024/01/08 22:30:35;;;;;;;16.70;11.32;;;;;;;;;;10292968;28;20053;-63
2024/01/08 22:35:35;;;;;;;15.82;10.63;;;;;;;;;;10286695;28;20574;-62
2024/01/08 22:40:33;;;;;;;17.40;11.43;;;;;;;;;;10288753;28;20075;-62
2024/01/08 22:45:31;;;;;;;12.88;9.93;;;;;;;;;;10292270;28;20087;-63
2024/01/08 22:50:30;;;;;;;13.35;10.60;;;;;;;;;;10289877;28;20083;-63
2024/01/08 22:55:29;;;;;;;13.68;9.10;;;;;;;;;;10291795;28;20076;-63
2024/01/08 23:00:28;;;;;;;16.25;11.30;;;;;;;;;;10290727;28;20080;-62
2024/01/08 23:05:27;;;;;;;14.20;10.60;;;;;;;;;;10291118;28;20351;-63
2024/01/08 23:10:26;;;;;;;15.00;10.35;;;;;;;;;;10290845;28;20079;-63
2024/01/08 23:15:25;;;;;;;14.75;11.18;;;;;;;;;;10289561;28;20060;-63
2024/01/08 23:20:24;;;;;;;10.18;7.78;;;;;;;;;;10285757;28;20478;-63
2024/01/08 23:25:24;;;;;;;12.88;9.35;;;;;;;;;;10281818;28;20119;-63
2024/01/08 23:30:22;;;;;;;9.95;8.73;;;;;;;;;;10283997;28;20075;-63
2024/01/08 23:35:21;;;;;;;12.77;9.70;;;;;;;;;;10285084;28;20083;-63
2024/01/08 23:40:20;;;;;;;13.15;9.00;;;;;;;;;;10285984;28;20485;-63
2024/01/08 23:45:18;;;;;;;15.30;9.65;;;;;;;;;;10286689;28;20533;-62
2024/01/08 23:50:16;;;;;;;18.33;10.82;;;;;;;;;;10287589;28;20076;-62
2024/01/08 23:55:16;;;;;;;12.77;9.27;;;;;;;;;;10288267;28;20088;-62
